sensor_id;sensor_type;location;lat;lon;timestamp;temperature;humidity
32787;DHT22;19139;49.372;8.580;2023-04-01T00:01:09;20.70;85.00
32787;DHT22;19139;49.372;8.580;2023-04-01T00:03:36;20.70;85.00
32787;DHT22;19139;49.372;8.580;2023-04-01T00:06:03;20.70;84.90
32787;DHT22;19139;49.372;8.580;2023-04-01T00:08:31;20.70;84.90
32787;DHT22;19139;49.372;8.580;2023-04-01T00:10:58;20.70;84.90
32787;DHT22;19139;49.372;8.580;2023-04-01T00:13:25;20.70;84.90
32787;DHT22;19139;49.372;8.580;2023-04-01T00:15:53;20.70;84.90
32787;DHT22;19139;49.372;8.580;2023-04-01T00:18:22;20.70;84.90
32787;DHT22;19139;49.372;8.580;2023-04-01T00:20:51;20.70;84.80
32787;DHT22;19139;49.372;8.580;2023-04-01T00:23:18;20.70;84.90
32787;DHT22;19139;49.372;8.580;2023-04-01T00:25:46;20.70;84.90
32787;DHT22;19139;49.372;8.580;2023-04-01T00:28:18;20.70;84.80
32787;DHT22;19139;49.372;8.580;2023-04-01T00:30:45;20.60;84.80
32787;DHT22;19139;49.372;8.580;2023-04-01T00:33:12;20.70;84.90
32787;DHT22;19139;49.372;8.580;2023-04-01T00:35:39;20.60;84.80
32787;DHT22;19139;49.372;8.580;2023-04-01T00:38:06;20.70;84.80
32787;DHT22;19139;49.372;8.580;2023-04-01T00:40:40;20.70;84.80
32787;DHT22;19139;49.372;8.580;2023-04-01T00:43:17;20.60;84.70
32787;DHT22;19139;49.372;8.580;2023-04-01T00:45:48;20.70;84.80
32787;DHT22;19139;49.372;8.580;2023-04-01T00:48:24;20.60;84.80
32787;DHT22;19139;49.372;8.580;2023-04-01T00:51:14;20.60;84.80
32787;DHT22;19139;49.372;8.580;2023-04-01T00:53:44;20.60;84.70
32787;DHT22;19139;49.372;8.580;2023-04-01T00:56:18;20.60;84.70
32787;DHT22;19139;49.372;8.580;2023-04-01T00:58:51;20.60;84.70
32787;DHT22;19139;49.372;8.580;2023-04-01T01:01:22;20.70;84.80
32787;DHT22;19139;49.372;8.580;2023-04-01T01:03:50;20.60;84.70
32787;DHT22;19139;49.372;8.580;2023-04-01T01:06:46;20.60;84.60
32787;DHT22;19139;49.372;8.580;2023-04-01T01:09:33;20.60;84.70
32787;DHT22;19139;49.372;8.580;2023-04-01T01:12:16;20.60;84.60
32787;DHT22;19139;49.372;8.580;2023-04-01T01:20:04;20.60;84.60
32787;DHT22;19139;49.372;8.580;2023-04-01T01:34:31;20.60;84.60
32787;DHT22;19139;49.372;8.580;2023-04-01T01:37:09;20.60;84.60
32787;DHT22;19139;49.372;8.580;2023-04-01T01:39:37;20.60;84.60
32787;DHT22;19139;49.372;8.580;2023-04-01T01:42:07;20.60;84.60
32787;DHT22;19139;49.372;8.580;2023-04-01T01:44:36;20.60;84.50
32787;DHT22;19139;49.372;8.580;2023-04-01T01:47:05;20.60;84.60
32787;DHT22;19139;49.372;8.580;2023-04-01T01:49:33;20.60;84.60
32787;DHT22;19139;49.372;8.580;2023-04-01T01:52:02;20.60;84.60
32787;DHT22;19139;49.372;8.580;2023-04-01T01:54:30;20.60;84.50
32787;DHT22;19139;49.372;8.580;2023-04-01T01:57:04;20.60;84.50
32787;DHT22;19139;49.372;8.580;2023-04-01T01:59:33;20.60;84.60
32787;DHT22;19139;49.372;8.580;2023-04-01T02:02:02;20.60;84.50
32787;DHT22;19139;49.372;8.580;2023-04-01T02:04:42;20.60;84.50
32787;DHT22;19139;49.372;8.580;2023-04-01T02:07:16;20.60;84.50
32787;DHT22;19139;49.372;8.580;2023-04-01T02:09:44;20.50;84.50
32787;DHT22;19139;49.372;8.580;2023-04-01T02:12:14;20.50;84.50
32787;DHT22;19139;49.372;8.580;2023-04-01T02:17:46;20.50;84.50
32787;DHT22;19139;49.372;8.580;2023-04-01T02:20:20;20.50;84.50
32787;DHT22;19139;49.372;8.580;2023-04-01T02:22:50;20.50;84.50
32787;DHT22;19139;49.372;8.580;2023-04-01T02:25:21;20.50;84.40
32787;DHT22;19139;49.372;8.580;2023-04-01T02:27:49;20.50;84.40
32787;DHT22;19139;49.372;8.580;2023-04-01T02:30:17;20.50;84.50
32787;DHT22;19139;49.372;8.580;2023-04-01T02:32:45;20.50;84.40
32787;DHT22;19139;49.372;8.580;2023-04-01T02:35:14;20.50;84.40
32787;DHT22;19139;49.372;8.580;2023-04-01T02:37:43;20.50;84.50
32787;DHT22;19139;49.372;8.580;2023-04-01T02:40:13;20.50;84.30
32787;DHT22;19139;49.372;8.580;2023-04-01T02:42:40;20.50;84.30
32787;DHT22;19139;49.372;8.580;2023-04-01T02:45:08;20.50;84.30
32787;DHT22;19139;49.372;8.580;2023-04-01T02:47:35;20.50;84.30
32787;DHT22;19139;49.372;8.580;2023-04-01T02:50:01;20.50;84.30
32787;DHT22;19139;49.372;8.580;2023-04-01T02:52:29;20.50;84.30
32787;DHT22;19139;49.372;8.580;2023-04-01T02:54:57;20.50;84.30
32787;DHT22;19139;49.372;8.580;2023-04-01T02:57:24;20.50;84.30
32787;DHT22;19139;49.372;8.580;2023-04-01T02:59:52;20.50;84.30
32787;DHT22;19139;49.372;8.580;2023-04-01T03:02:18;20.50;84.30
32787;DHT22;19139;49.372;8.580;2023-04-01T03:04:45;20.50;84.30
32787;DHT22;19139;49.372;8.580;2023-04-01T03:07:12;20.50;84.30
32787;DHT22;19139;49.372;8.580;2023-04-01T03:09:39;20.50;84.30
32787;DHT22;19139;49.372;8.580;2023-04-01T03:12:06;20.50;84.30
32787;DHT22;19139;49.372;8.580;2023-04-01T03:14:33;20.50;84.30
32787;DHT22;19139;49.372;8.580;2023-04-01T03:16:59;20.50;84.30
32787;DHT22;19139;49.372;8.580;2023-04-01T03:19:27;20.50;84.30
32787;DHT22;19139;49.372;8.580;2023-04-01T03:21:53;20.50;84.30
32787;DHT22;19139;49.372;8.580;2023-04-01T03:24:20;20.50;84.20
32787;DHT22;19139;49.372;8.580;2023-04-01T03:26:47;20.50;84.20
32787;DHT22;19139;49.372;8.580;2023-04-01T03:29:13;20.40;84.10
32787;DHT22;19139;49.372;8.580;2023-04-01T03:31:42;20.40;84.10
32787;DHT22;19139;49.372;8.580;2023-04-01T03:34:08;20.40;84.20
32787;DHT22;19139;49.372;8.580;2023-04-01T03:36:36;20.50;84.10
32787;DHT22;19139;49.372;8.580;2023-04-01T03:39:03;20.40;84.10
32787;DHT22;19139;49.372;8.580;2023-04-01T03:41:30;20.40;84.10
32787;DHT22;19139;49.372;8.580;2023-04-01T03:43:57;20.40;84.10
32787;DHT22;19139;49.372;8.580;2023-04-01T03:46:23;20.40;84.10
32787;DHT22;19139;49.372;8.580;2023-04-01T03:48:50;20.40;84.10
32787;DHT22;19139;49.372;8.580;2023-04-01T03:51:17;20.40;84.10
32787;DHT22;19139;49.372;8.580;2023-04-01T03:53:43;20.40;84.10
32787;DHT22;19139;49.372;8.580;2023-04-01T03:56:10;20.40;84.10
32787;DHT22;19139;49.372;8.580;2023-04-01T03:58:37;20.40;84.10
32787;DHT22;19139;49.372;8.580;2023-04-01T04:01:16;20.40;84.10
32787;DHT22;19139;49.372;8.580;2023-04-01T04:03:43;20.40;84.10
32787;DHT22;19139;49.372;8.580;2023-04-01T04:06:12;20.40;84.10
32787;DHT22;19139;49.372;8.580;2023-04-01T04:08:39;20.40;84.10
32787;DHT22;19139;49.372;8.580;2023-04-01T04:11:06;20.40;84.00
32787;DHT22;19139;49.372;8.580;2023-04-01T04:13:32;20.40;84.00
32787;DHT22;19139;49.372;8.580;2023-04-01T04:15:59;20.40;84.10
32787;DHT22;19139;49.372;8.580;2023-04-01T04:18:26;20.40;84.10
32787;DHT22;19139;49.372;8.580;2023-04-01T04:20:52;20.40;84.00
32787;DHT22;19139;49.372;8.580;2023-04-01T04:23:19;20.40;84.00
32787;DHT22;19139;49.372;8.580;2023-04-01T04:26:04;20.40;84.00
32787;DHT22;19139;49.372;8.580;2023-04-01T04:28:32;20.40;83.90
32787;DHT22;19139;49.372;8.580;2023-04-01T04:30:58;20.40;83.90
32787;DHT22;19139;49.372;8.580;2023-04-01T04:33:26;20.40;84.00
32787;DHT22;19139;49.372;8.580;2023-04-01T04:35:56;20.40;84.00
32787;DHT22;19139;49.372;8.580;2023-04-01T04:38:22;20.40;84.00
32787;DHT22;19139;49.372;8.580;2023-04-01T04:40:49;20.40;84.00
32787;DHT22;19139;49.372;8.580;2023-04-01T04:43:17;20.30;83.90
32787;DHT22;19139;49.372;8.580;2023-04-01T04:45:44;20.40;84.00
32787;DHT22;19139;49.372;8.580;2023-04-01T04:48:12;20.40;84.00
32787;DHT22;19139;49.372;8.580;2023-04-01T04:50:46;20.40;84.00
32787;DHT22;19139;49.372;8.580;2023-04-01T04:53:13;20.40;84.00
32787;DHT22;19139;49.372;8.580;2023-04-01T04:55:45;20.30;83.90
32787;DHT22;19139;49.372;8.580;2023-04-01T04:58:12;20.40;84.70
32787;DHT22;19139;49.372;8.580;2023-04-01T05:00:39;20.40;83.90
32787;DHT22;19139;49.372;8.580;2023-04-01T05:03:07;20.30;83.90
32787;DHT22;19139;49.372;8.580;2023-04-01T05:05:34;20.40;84.00
32787;DHT22;19139;49.372;8.580;2023-04-01T05:08:01;20.40;84.00
32787;DHT22;19139;49.372;8.580;2023-04-01T05:10:27;20.30;83.90
32787;DHT22;19139;49.372;8.580;2023-04-01T05:12:54;20.30;83.90
32787;DHT22;19139;49.372;8.580;2023-04-01T05:15:21;20.30;84.00
32787;DHT22;19139;49.372;8.580;2023-04-01T05:17:48;20.40;84.00
32787;DHT22;19139;49.372;8.580;2023-04-01T05:20:15;20.30;83.90
32787;DHT22;19139;49.372;8.580;2023-04-01T05:22:42;20.30;83.90
32787;DHT22;19139;49.372;8.580;2023-04-01T05:25:09;20.30;83.90
32787;DHT22;19139;49.372;8.580;2023-04-01T05:27:35;20.30;83.90
32787;DHT22;19139;49.372;8.580;2023-04-01T05:30:02;20.30;83.90
32787;DHT22;19139;49.372;8.580;2023-04-01T05:32:31;20.30;83.90
32787;DHT22;19139;49.372;8.580;2023-04-01T05:34:57;20.30;83.90
32787;DHT22;19139;49.372;8.580;2023-04-01T05:37:24;20.30;83.90
32787;DHT22;19139;49.372;8.580;2023-04-01T05:39:50;20.30;83.90
32787;DHT22;19139;49.372;8.580;2023-04-01T05:42:17;20.30;83.90
32787;DHT22;19139;49.372;8.580;2023-04-01T05:44:44;20.30;83.90
32787;DHT22;19139;49.372;8.580;2023-04-01T05:47:10;20.30;83.90
32787;DHT22;19139;49.372;8.580;2023-04-01T05:49:37;20.30;83.90
32787;DHT22;19139;49.372;8.580;2023-04-01T05:52:03;20.30;83.90
32787;DHT22;19139;49.372;8.580;2023-04-01T05:54:30;20.30;83.90
32787;DHT22;19139;49.372;8.580;2023-04-01T05:56:57;20.30;83.90
32787;DHT22;19139;49.372;8.580;2023-04-01T05:59:23;20.30;83.90
32787;DHT22;19139;49.372;8.580;2023-04-01T06:01:50;20.30;83.90
32787;DHT22;19139;49.372;8.580;2023-04-01T06:04:18;20.30;83.90
32787;DHT22;19139;49.372;8.580;2023-04-01T06:06:44;20.30;83.90
32787;DHT22;19139;49.372;8.580;2023-04-01T06:09:16;20.30;83.90
32787;DHT22;19139;49.372;8.580;2023-04-01T06:12:00;20.30;83.90
32787;DHT22;19139;49.372;8.580;2023-04-01T06:17:52;20.30;83.90
32787;DHT22;19139;49.372;8.580;2023-04-01T06:26:39;20.30;83.90
32787;DHT22;19139;49.372;8.580;2023-04-01T06:29:35;20.30;83.90
32787;DHT22;19139;49.372;8.580;2023-04-01T06:35:17;20.30;83.90
32787;DHT22;19139;49.372;8.580;2023-04-01T06:46:36;20.20;83.80
32787;DHT22;19139;49.372;8.580;2023-04-01T06:49:32;20.30;83.90
32787;DHT22;19139;49.372;8.580;2023-04-01T06:54:35;20.20;83.80
32787;DHT22;19139;49.372;8.580;2023-04-01T06:57:34;20.30;83.80
32787;DHT22;19139;49.372;8.580;2023-04-01T07:00:04;20.30;83.80
32787;DHT22;19139;49.372;8.580;2023-04-01T07:02:42;20.30;83.80
32787;DHT22;19139;49.372;8.580;2023-04-01T07:05:13;20.30;83.90
32787;DHT22;19139;49.372;8.580;2023-04-01T07:07:45;20.30;83.90
32787;DHT22;19139;49.372;8.580;2023-04-01T07:10:17;20.30;83.80
32787;DHT22;19139;49.372;8.580;2023-04-01T07:12:49;20.20;83.80
32787;DHT22;19139;49.372;8.580;2023-04-01T07:15:22;20.30;83.90
32787;DHT22;19139;49.372;8.580;2023-04-01T07:17:57;20.20;83.70
32787;DHT22;19139;49.372;8.580;2023-04-01T07:20:31;20.30;83.80
32787;DHT22;19139;49.372;8.580;2023-04-01T07:23:00;20.30;83.80
32787;DHT22;19139;49.372;8.580;2023-04-01T07:25:35;20.20;83.70
32787;DHT22;19139;49.372;8.580;2023-04-01T07:28:14;20.20;83.70
32787;DHT22;19139;49.372;8.580;2023-04-01T07:30:47;20.20;83.70
32787;DHT22;19139;49.372;8.580;2023-04-01T07:33:27;20.20;83.70
32787;DHT22;19139;49.372;8.580;2023-04-01T07:41:32;20.20;83.80
32787;DHT22;19139;49.372;8.580;2023-04-01T07:44:24;20.20;83.80
32787;DHT22;19139;49.372;8.580;2023-04-01T07:47:10;20.20;84.60
32787;DHT22;19139;49.372;8.580;2023-04-01T07:52:33;20.20;83.80
32787;DHT22;19139;49.372;8.580;2023-04-01T07:55:15;20.20;83.70
32787;DHT22;19139;49.372;8.580;2023-04-01T07:58:01;20.20;83.70
32787;DHT22;19139;49.372;8.580;2023-04-01T08:00:44;20.20;83.70
32787;DHT22;19139;49.372;8.580;2023-04-01T08:06:18;20.20;83.70
32787;DHT22;19139;49.372;8.580;2023-04-01T08:11:54;20.20;83.90
32787;DHT22;19139;49.372;8.580;2023-04-01T08:14:33;20.20;83.80
32787;DHT22;19139;49.372;8.580;2023-04-01T08:19:56;20.20;83.70
32787;DHT22;19139;49.372;8.580;2023-04-01T08:22:45;20.20;83.80
32787;DHT22;19139;49.372;8.580;2023-04-01T08:25:24;20.20;83.80
32787;DHT22;19139;49.372;8.580;2023-04-01T08:28:41;20.10;83.70
32787;DHT22;19139;49.372;8.580;2023-04-01T08:31:18;20.20;83.80
32787;DHT22;19139;49.372;8.580;2023-04-01T08:33:38;20.20;83.80
32787;DHT22;19139;49.372;8.580;2023-04-01T08:36:12;20.20;83.80
32787;DHT22;19139;49.372;8.580;2023-04-01T08:39:04;20.20;83.80
32787;DHT22;19139;49.372;8.580;2023-04-01T08:47:13;20.20;83.80
32787;DHT22;19139;49.372;8.580;2023-04-01T08:53:16;20.10;83.90
32787;DHT22;19139;49.372;8.580;2023-04-01T09:06:50;20.20;83.90
32787;DHT22;19139;49.372;8.580;2023-04-01T09:17:42;20.10;83.80
32787;DHT22;19139;49.372;8.580;2023-04-01T09:23:44;20.10;83.70
32787;DHT22;19139;49.372;8.580;2023-04-01T09:29:47;20.10;83.90
32787;DHT22;19139;49.372;8.580;2023-04-01T09:32:40;20.10;83.80
32787;DHT22;19139;49.372;8.580;2023-04-01T09:35:36;20.10;83.80
32787;DHT22;19139;49.372;8.580;2023-04-01T09:39:04;20.10;83.80
32787;DHT22;19139;49.372;8.580;2023-04-01T09:41:32;20.10;83.80
32787;DHT22;19139;49.372;8.580;2023-04-01T09:55:43;20.10;84.70
32787;DHT22;19139;49.372;8.580;2023-04-01T09:58:38;20.20;85.00
32787;DHT22;19139;49.372;8.580;2023-04-01T10:01:27;20.20;85.10
32787;DHT22;19139;49.372;8.580;2023-04-01T10:04:11;20.10;85.10
32787;DHT22;19139;49.372;8.580;2023-04-01T10:06:56;20.20;85.40
32787;DHT22;19139;49.372;8.580;2023-04-01T10:18:18;20.20;85.50
32787;DHT22;19139;49.372;8.580;2023-04-01T10:26:49;20.10;85.40
32787;DHT22;19139;49.372;8.580;2023-04-01T10:38:06;20.00;85.60
32787;DHT22;19139;49.372;8.580;2023-04-01T10:46:59;19.90;85.40
32787;DHT22;19139;49.372;8.580;2023-04-01T10:49:47;19.90;85.50
32787;DHT22;19139;49.372;8.580;2023-04-01T10:52:36;19.90;85.60
32787;DHT22;19139;49.372;8.580;2023-04-01T10:58:27;19.90;86.10
32787;DHT22;19139;49.372;8.580;2023-04-01T11:04:00;19.90;86.20
32787;DHT22;19139;49.372;8.580;2023-04-01T11:19:04;20.00;86.70
32787;DHT22;19139;49.372;8.580;2023-04-01T11:21:59;19.90;86.60
32787;DHT22;19139;49.372;8.580;2023-04-01T11:24:55;20.00;86.80
32787;DHT22;19139;49.372;8.580;2023-04-01T11:36:55;20.00;87.00
32787;DHT22;19139;49.372;8.580;2023-04-01T11:39:33;19.90;86.90
32787;DHT22;19139;49.372;8.580;2023-04-01T11:42:14;20.00;87.40
32787;DHT22;19139;49.372;8.580;2023-04-01T11:53:18;20.00;86.90
32787;DHT22;19139;49.372;8.580;2023-04-01T11:56:15;20.10;86.80
32787;DHT22;19139;49.372;8.580;2023-04-01T12:01:55;20.10;86.60
32787;DHT22;19139;49.372;8.580;2023-04-01T12:04:58;20.10;86.60
32787;DHT22;19139;49.372;8.580;2023-04-01T12:07:45;20.10;86.50
32787;DHT22;19139;49.372;8.580;2023-04-01T12:18:31;20.10;86.20
32787;DHT22;19139;49.372;8.580;2023-04-01T12:24:22;20.00;86.00
32787;DHT22;19139;49.372;8.580;2023-04-01T12:30:14;20.00;86.00
32787;DHT22;19139;49.372;8.580;2023-04-01T12:33:18;20.10;86.00
32787;DHT22;19139;49.372;8.580;2023-04-01T12:39:17;20.10;85.80
32787;DHT22;19139;49.372;8.580;2023-04-01T12:42:17;20.10;85.90
32787;DHT22;19139;49.372;8.580;2023-04-01T12:50:26;20.10;85.70
32787;DHT22;19139;49.372;8.580;2023-04-01T12:55:43;20.10;85.80
32787;DHT22;19139;49.372;8.580;2023-04-01T12:58:37;20.10;85.70
32787;DHT22;19139;49.372;8.580;2023-04-01T13:07:50;20.00;85.60
32787;DHT22;19139;49.372;8.580;2023-04-01T13:10:43;20.10;85.60
32787;DHT22;19139;49.372;8.580;2023-04-01T13:18:56;20.10;85.60
32787;DHT22;19139;49.372;8.580;2023-04-01T13:27:11;20.10;85.50
32787;DHT22;19139;49.372;8.580;2023-04-01T13:29:47;20.00;85.40
32787;DHT22;19139;49.372;8.580;2023-04-01T13:33:14;20.00;85.40
32787;DHT22;19139;49.372;8.580;2023-04-01T13:35:43;20.10;85.40
32787;DHT22;19139;49.372;8.580;2023-04-01T13:44:00;20.10;85.40
32787;DHT22;19139;49.372;8.580;2023-04-01T13:46:43;20.10;85.40
32787;DHT22;19139;49.372;8.580;2023-04-01T14:06:47;20.00;85.20
32787;DHT22;19139;49.372;8.580;2023-04-01T14:17:35;20.00;85.20
32787;DHT22;19139;49.372;8.580;2023-04-01T14:20:25;20.00;85.10
32787;DHT22;19139;49.372;8.580;2023-04-01T14:29:00;20.00;85.20
32787;DHT22;19139;49.372;8.580;2023-04-01T14:37:31;20.00;85.00
32787;DHT22;19139;49.372;8.580;2023-04-01T14:48:38;20.00;85.00
32787;DHT22;19139;49.372;8.580;2023-04-01T14:51:29;20.00;85.70
32787;DHT22;19139;49.372;8.580;2023-04-01T14:54:16;20.00;85.00
32787;DHT22;19139;49.372;8.580;2023-04-01T14:56:51;20.00;85.00
32787;DHT22;19139;49.372;8.580;2023-04-01T14:59:28;20.00;85.00
32787;DHT22;19139;49.372;8.580;2023-04-01T15:04:57;20.00;85.00
32787;DHT22;19139;49.372;8.580;2023-04-01T15:18:23;20.00;85.00
32787;DHT22;19139;49.372;8.580;2023-04-01T15:21:16;20.00;85.00
32787;DHT22;19139;49.372;8.580;2023-04-01T15:24:03;20.00;85.00
32787;DHT22;19139;49.372;8.580;2023-04-01T15:26:37;19.90;84.90
32787;DHT22;19139;49.372;8.580;2023-04-01T15:29:28;19.90;84.90
32787;DHT22;19139;49.372;8.580;2023-04-01T15:32:17;20.00;85.00
32787;DHT22;19139;49.372;8.580;2023-04-01T15:37:56;20.00;85.00
32787;DHT22;19139;49.372;8.580;2023-04-01T15:55:12;20.00;85.80
32787;DHT22;19139;49.372;8.580;2023-04-01T16:00:29;20.00;86.50
32787;DHT22;19139;49.372;8.580;2023-04-01T16:06:16;19.90;86.60
32787;DHT22;19139;49.372;8.580;2023-04-01T16:12:07;20.00;86.60
32787;DHT22;19139;49.372;8.580;2023-04-01T16:25:20;20.00;86.90
32787;DHT22;19139;49.372;8.580;2023-04-01T16:28:19;20.00;86.00
32787;DHT22;19139;49.372;8.580;2023-04-01T16:36:26;20.00;85.80
32787;DHT22;19139;49.372;8.580;2023-04-01T16:39:37;20.00;85.80
32787;DHT22;19139;49.372;8.580;2023-04-01T16:47:56;19.90;85.60
32787;DHT22;19139;49.372;8.580;2023-04-01T16:50:59;19.90;85.50
32787;DHT22;19139;49.372;8.580;2023-04-01T16:53:48;20.00;85.50
32787;DHT22;19139;49.372;8.580;2023-04-01T16:56:28;20.00;85.40
32787;DHT22;19139;49.372;8.580;2023-04-01T17:02:28;20.00;85.40
32787;DHT22;19139;49.372;8.580;2023-04-01T17:07:30;19.90;85.30
32787;DHT22;19139;49.372;8.580;2023-04-01T17:10:30;20.00;85.40
32787;DHT22;19139;49.372;8.580;2023-04-01T17:16:42;19.90;86.00
32787;DHT22;19139;49.372;8.580;2023-04-01T17:19:27;20.00;85.90
32787;DHT22;19139;49.372;8.580;2023-04-01T17:22:17;19.90;85.80
32787;DHT22;19139;49.372;8.580;2023-04-01T17:25:01;20.00;85.90
32787;DHT22;19139;49.372;8.580;2023-04-01T17:38:48;19.90;85.60
32787;DHT22;19139;49.372;8.580;2023-04-01T17:41:53;20.00;85.60
32787;DHT22;19139;49.372;8.580;2023-04-01T17:53:22;19.90;85.40
32787;DHT22;19139;49.372;8.580;2023-04-01T18:03:55;19.90;85.40
32787;DHT22;19139;49.372;8.580;2023-04-01T18:06:49;19.90;85.30
32787;DHT22;19139;49.372;8.580;2023-04-01T18:14:32;19.90;85.40
32787;DHT22;19139;49.372;8.580;2023-04-01T18:17:33;19.90;85.50
32787;DHT22;19139;49.372;8.580;2023-04-01T18:20:24;19.90;85.40
32787;DHT22;19139;49.372;8.580;2023-04-01T18:25:40;19.90;85.40
32787;DHT22;19139;49.372;8.580;2023-04-01T18:28:31;19.90;85.40
32787;DHT22;19139;49.372;8.580;2023-04-01T18:36:51;19.90;85.40
32787;DHT22;19139;49.372;8.580;2023-04-01T18:39:40;19.90;85.30
32787;DHT22;19139;49.372;8.580;2023-04-01T18:42:30;19.90;85.30
32787;DHT22;19139;49.372;8.580;2023-04-01T18:45:26;19.90;85.30
32787;DHT22;19139;49.372;8.580;2023-04-01T18:48:06;19.90;85.30
32787;DHT22;19139;49.372;8.580;2023-04-01T18:51:10;19.90;85.30
32787;DHT22;19139;49.372;8.580;2023-04-01T18:56:05;19.90;85.20
32787;DHT22;19139;49.372;8.580;2023-04-01T18:58:45;19.90;85.30
32787;DHT22;19139;49.372;8.580;2023-04-01T19:01:23;19.90;85.30
32787;DHT22;19139;49.372;8.580;2023-04-01T19:06:54;19.90;85.20
32787;DHT22;19139;49.372;8.580;2023-04-01T19:20:20;19.80;85.20
32787;DHT22;19139;49.372;8.580;2023-04-01T19:23:00;19.90;85.20
32787;DHT22;19139;49.372;8.580;2023-04-01T19:25:38;19.80;85.20
32787;DHT22;19139;49.372;8.580;2023-04-01T19:28:34;19.90;85.20
32787;DHT22;19139;49.372;8.580;2023-04-01T19:34:07;19.90;85.20
32787;DHT22;19139;49.372;8.580;2023-04-01T19:36:59;19.90;85.20
32787;DHT22;19139;49.372;8.580;2023-04-01T19:45:19;19.80;85.20
32787;DHT22;19139;49.372;8.580;2023-04-01T19:48:19;19.80;85.10
32787;DHT22;19139;49.372;8.580;2023-04-01T19:53:48;19.90;85.20
32787;DHT22;19139;49.372;8.580;2023-04-01T19:56:21;19.80;85.10
32787;DHT22;19139;49.372;8.580;2023-04-01T20:01:52;19.80;85.10
32787;DHT22;19139;49.372;8.580;2023-04-01T20:07:23;19.80;85.10
32787;DHT22;19139;49.372;8.580;2023-04-01T20:10:08;19.80;85.10
32787;DHT22;19139;49.372;8.580;2023-04-01T20:12:45;19.80;85.10
32787;DHT22;19139;49.372;8.580;2023-04-01T20:15:39;19.80;85.10
32787;DHT22;19139;49.372;8.580;2023-04-01T20:18:24;19.80;85.10
32787;DHT22;19139;49.372;8.580;2023-04-01T20:21:00;19.80;85.10
32787;DHT22;19139;49.372;8.580;2023-04-01T20:23:44;19.80;85.10
32787;DHT22;19139;49.372;8.580;2023-04-01T20:26:13;19.80;85.10
32787;DHT22;19139;49.372;8.580;2023-04-01T20:28:59;19.80;85.10
32787;DHT22;19139;49.372;8.580;2023-04-01T20:31:36;19.80;85.10
32787;DHT22;19139;49.372;8.580;2023-04-01T20:42:16;19.80;85.00
32787;DHT22;19139;49.372;8.580;2023-04-01T20:45:09;19.80;85.00
32787;DHT22;19139;49.372;8.580;2023-04-01T20:56:02;19.80;85.00
32787;DHT22;19139;49.372;8.580;2023-04-01T21:15:42;19.80;85.00
32787;DHT22;19139;49.372;8.580;2023-04-01T21:18:27;19.80;85.00
32787;DHT22;19139;49.372;8.580;2023-04-01T21:34:40;19.80;85.00
32787;DHT22;19139;49.372;8.580;2023-04-01T21:39:47;19.80;84.90
32787;DHT22;19139;49.372;8.580;2023-04-01T21:42:31;19.70;84.90
32787;DHT22;19139;49.372;8.580;2023-04-01T21:48:33;19.80;84.90
32787;DHT22;19139;49.372;8.580;2023-04-01T21:51:11;19.80;85.00
32787;DHT22;19139;49.372;8.580;2023-04-01T22:05:24;19.70;84.90
32787;DHT22;19139;49.372;8.580;2023-04-01T22:10:41;19.70;84.90
32787;DHT22;19139;49.372;8.580;2023-04-01T22:13:23;19.80;84.90
32787;DHT22;19139;49.372;8.580;2023-04-01T22:19:17;19.70;84.80
32787;DHT22;19139;49.372;8.580;2023-04-01T22:25:14;19.70;84.80
32787;DHT22;19139;49.372;8.580;2023-04-01T22:27:44;19.70;84.80
32787;DHT22;19139;49.372;8.580;2023-04-01T22:30:30;19.70;84.90
32787;DHT22;19139;49.372;8.580;2023-04-01T22:33:15;19.70;84.80
32787;DHT22;19139;49.372;8.580;2023-04-01T22:41:46;19.70;84.80
32787;DHT22;19139;49.372;8.580;2023-04-01T22:47:40;19.70;84.70
32787;DHT22;19139;49.372;8.580;2023-04-01T22:50:22;19.70;84.70
32787;DHT22;19139;49.372;8.580;2023-04-01T22:53:07;19.70;84.70
32787;DHT22;19139;49.372;8.580;2023-04-01T22:55:39;19.70;84.80
32787;DHT22;19139;49.372;8.580;2023-04-01T22:58:31;19.70;84.70
32787;DHT22;19139;49.372;8.580;2023-04-01T23:01:05;19.70;84.80
32787;DHT22;19139;49.372;8.580;2023-04-01T23:03:38;19.70;84.80
32787;DHT22;19139;49.372;8.580;2023-04-01T23:06:31;19.70;84.70
32787;DHT22;19139;49.372;8.580;2023-04-01T23:11:46;19.70;84.70
32787;DHT22;19139;49.372;8.580;2023-04-01T23:17:11;19.70;84.70
32787;DHT22;19139;49.372;8.580;2023-04-01T23:19:51;19.70;84.70
32787;DHT22;19139;49.372;8.580;2023-04-01T23:33:21;19.70;84.70
32787;DHT22;19139;49.372;8.580;2023-04-01T23:36:19;19.70;84.80
32787;DHT22;19139;49.372;8.580;2023-04-01T23:38:48;19.70;84.70
32787;DHT22;19139;49.372;8.580;2023-04-01T23:41:29;19.70;84.70
32787;DHT22;19139;49.372;8.580;2023-04-01T23:44:02;19.70;84.70
32787;DHT22;19139;49.372;8.580;2023-04-01T23:46:32;19.70;84.70
32787;DHT22;19139;49.372;8.580;2023-04-01T23:49:01;19.70;85.40
32787;DHT22;19139;49.372;8.580;2023-04-01T23:51:36;19.70;84.70
32787;DHT22;19139;49.372;8.580;2023-04-01T23:54:39;19.70;84.70
32787;DHT22;19139;49.372;8.580;2023-04-01T23:57:12;19.70;84.70
32787;DHT22;19139;49.372;8.580;2023-04-01T23:59:40;19.70;84.70
